Time;durP1;ratioP1;P1;durP2;ratioP2;P2;SDS_P1;SDS_P2;PMS_P1;PMS_P2;Temp;Humidity;BMP_temperature;BMP_pressure;BME280_temperature;BME280_humidity;BME280_pressure;Samples;Min_cycle;Max_cycle;Signal;HPM_P1;HPM_P2
2023/01/30 00:01:35;;;;;;;90.20;44.08;;;1.50;99.90;;;;;;5118321;28;20505;-65
2023/01/30 00:04:01;;;;;;;69.15;33.60;;;1.50;99.90;;;;;;5118441;28;20034;-65
2023/01/30 00:06:26;;;;;;;65.18;33.08;;;1.50;99.90;;;;;;5118412;28;20091;-65
2023/01/30 00:08:52;;;;;;;69.68;33.55;;;1.50;99.90;;;;;;5118241;28;20059;-65
2023/01/30 00:11:19;;;;;;;88.55;40.38;;;1.50;99.90;;;;;;5118385;28;20058;-65
2023/01/30 00:13:48;;;;;;;83.13;41.60;;;1.40;99.90;;;;;;5118268;28;20389;-65
2023/01/30 00:16:15;;;;;;;75.50;35.88;;;1.30;99.90;;;;;;5118301;27;20329;-65
2023/01/30 00:18:41;;;;;;;66.78;32.28;;;1.30;99.90;;;;;;5117973;28;20369;-65
2023/01/30 00:21:09;;;;;;;58.08;28.80;;;1.40;99.90;;;;;;5118029;28;20047;-65
2023/01/30 00:23:36;;;;;;;58.17;29.27;;;1.50;99.90;;;;;;5118113;28;20024;-65
2023/01/30 00:26:03;;;;;;;65.50;30.27;;;1.40;99.90;;;;;;5118017;28;20020;-65
2023/01/30 00:28:29;;;;;;;57.28;30.08;;;1.40;99.90;;;;;;5117981;28;20034;-65
2023/01/30 00:30:56;;;;;;;58.95;29.48;;;1.40;99.90;;;;;;5117998;28;20020;-65
2023/01/30 00:33:24;;;;;;;58.72;29.15;;;1.40;99.90;;;;;;5116328;28;20027;-65
2023/01/30 00:35:52;;;;;;;63.45;29.75;;;1.40;99.90;;;;;;5117964;28;20030;-65
2023/01/30 00:38:18;;;;;;;62.72;28.63;;;1.50;99.90;;;;;;5117870;28;20409;-65
2023/01/30 00:40:46;;;;;;;61.63;30.38;;;1.40;99.90;;;;;;5117812;28;20362;-65
2023/01/30 00:48:45;;;;;;;63.28;30.65;;;1.50;99.90;;;;;;5117637;28;20097;-65
2023/01/30 00:51:11;;;;;;;61.20;30.30;;;1.50;99.90;;;;;;5116287;28;20546;-65
2023/01/30 00:53:37;;;;;;;59.92;30.60;;;1.40;99.90;;;;;;5117474;28;20058;-65
2023/01/30 00:56:03;;;;;;;61.17;30.90;;;1.40;99.90;;;;;;5117489;28;20450;-65
2023/01/30 00:58:29;;;;;;;60.22;29.83;;;1.30;99.90;;;;;;5117222;28;20056;-65
2023/01/30 01:00:55;;;;;;;63.65;31.77;;;1.40;99.90;;;;;;5116990;28;20052;-65
2023/01/30 01:03:22;;;;;;;125.35;46.75;;;1.40;99.90;;;;;;5117227;28;20026;-65
2023/01/30 01:05:48;;;;;;;161.80;56.85;;;1.50;99.90;;;;;;5117217;28;20023;-65
2023/01/30 01:08:14;;;;;;;133.10;49.88;;;1.50;99.90;;;;;;5117148;28;20062;-65
2023/01/30 01:10:40;;;;;;;195.32;64.95;;;1.40;99.90;;;;;;5115745;28;20038;-65
2023/01/30 01:13:06;;;;;;;141.60;50.80;;;1.30;99.90;;;;;;5116946;28;20028;-65
2023/01/30 01:15:32;;;;;;;116.95;47.13;;;1.30;99.90;;;;;;5117118;28;20020;-65
2023/01/30 01:17:59;;;;;;;95.43;39.13;;;1.30;99.90;;;;;;5115559;28;20043;-65
2023/01/30 01:20:26;;;;;;;63.42;32.22;;;1.30;99.90;;;;;;5117042;28;20461;-65
2023/01/30 01:22:53;;;;;;;173.10;60.67;;;1.40;99.90;;;;;;5116800;28;20027;-65
2023/01/30 01:25:20;;;;;;;120.50;45.72;;;1.30;99.90;;;;;;5116814;28;20059;-65
2023/01/30 01:27:47;;;;;;;99.05;38.95;;;1.30;99.90;;;;;;5115524;28;20035;-65
2023/01/30 01:30:16;;;;;;;111.55;43.17;;;1.30;99.90;;;;;;5115469;28;20027;-65
2023/01/30 01:32:43;;;;;;;101.47;39.00;;;1.30;99.90;;;;;;5115579;28;20023;-65
2023/01/30 01:35:09;;;;;;;78.95;34.78;;;1.30;99.90;;;;;;5116733;28;20032;-65
2023/01/30 01:37:36;;;;;;;82.93;33.75;;;1.40;99.90;;;;;;5115258;28;20034;-65
2023/01/30 01:42:49;;;;;;;108.70;43.83;;;1.40;99.90;;;;;;5116548;28;20052;-65
2023/01/30 01:45:23;;;;;;;71.93;32.75;;;1.30;99.90;;;;;;5116623;27;20103;-65
2023/01/30 01:48:01;;;;;;;76.28;35.47;;;1.20;99.90;;;;;;5115190;28;20039;-65
2023/01/30 01:50:48;;;;;;;94.68;40.22;;;1.30;99.90;;;;;;5116444;28;20062;-65
2023/01/30 01:53:18;;;;;;;90.38;38.92;;;1.20;99.90;;;;;;5116427;28;20081;-65
2023/01/30 01:55:46;;;;;;;96.18;41.58;;;1.20;99.90;;;;;;5116187;28;20031;-65
2023/01/30 01:58:27;;;;;;;92.55;40.25;;;1.00;99.90;;;;;;5114892;28;20031;-65
2023/01/30 02:00:57;;;;;;;80.28;36.33;;;1.00;99.90;;;;;;5115796;28;20078;-65
2023/01/30 02:03:25;;;;;;;77.88;35.17;;;1.20;99.90;;;;;;5114828;28;20035;-65
2023/01/30 02:05:56;;;;;;;68.22;32.65;;;1.20;99.90;;;;;;5114698;28;20024;-65
2023/01/30 02:08:37;;;;;;;72.40;35.10;;;1.20;99.90;;;;;;5114761;28;20031;-65
2023/01/30 02:11:32;;;;;;;66.40;31.20;;;1.20;99.90;;;;;;5115909;28;20401;-65
2023/01/30 02:14:00;;;;;;;63.15;31.40;;;1.20;99.90;;;;;;5105146;27;20043;-65
2023/01/30 02:16:27;;;;;;;64.93;32.95;;;1.30;99.90;;;;;;5115777;28;20043;-65
2023/01/30 02:18:54;;;;;;;63.97;32.15;;;1.20;99.90;;;;;;5115532;28;20054;-65
2023/01/30 02:21:44;;;;;;;63.00;33.60;;;1.10;99.90;;;;;;5115854;28;20039;-65
2023/01/30 02:24:20;;;;;;;72.13;36.17;;;1.10;99.90;;;;;;5115770;28;20022;-65
2023/01/30 02:26:48;;;;;;;65.15;33.05;;;1.10;99.90;;;;;;5114281;28;20292;-65
2023/01/30 02:29:39;;;;;;;63.33;33.33;;;1.10;99.90;;;;;;5115639;28;20081;-65
2023/01/30 02:32:14;;;;;;;;;;;1.10;99.90;;;;;;5116072;28;20042;-65
2023/01/30 02:35:08;;;;;;;58.38;30.00;;;1.20;99.90;;;;;;5115476;28;20439;-65
2023/01/30 02:37:52;;;;;;;62.70;31.15;;;1.20;99.90;;;;;;5114126;28;20363;-65
2023/01/30 02:41:06;;;;;;;60.88;30.02;;;1.10;99.90;;;;;;5115501;28;20354;-65
2023/01/30 02:43:45;;;;;;;58.75;29.83;;;1.10;99.90;;;;;;5025839;28;20037;-65
2023/01/30 02:46:18;;;;;;;61.70;31.75;;;1.20;99.90;;;;;;5114218;28;20028;-65
2023/01/30 02:49:01;;;;;;;63.63;30.48;;;1.10;99.90;;;;;;5115330;28;20035;-65
2023/01/30 02:51:30;;;;;;;68.80;36.38;;;1.30;99.90;;;;;;5114000;28;20106;-65
2023/01/30 02:53:58;;;;;;;101.50;50.88;;;1.30;99.90;;;;;;5114121;28;20027;-65
2023/01/30 02:56:24;;;;;;;64.13;33.20;;;1.20;99.90;;;;;;5115203;28;20035;-65
2023/01/30 02:59:04;;;;;;;55.05;29.90;;;1.20;99.90;;;;;;5115159;28;20118;-65
2023/01/30 03:01:43;;;;;;;61.40;29.92;;;1.30;99.90;;;;;;5113678;28;20091;-65
2023/01/30 03:04:36;;;;;;;59.03;29.02;;;1.40;99.90;;;;;;5115171;28;20059;-65
2023/01/30 03:07:21;;;;;;;59.63;29.63;;;1.30;99.90;;;;;;5113229;28;20020;-65
2023/01/30 03:09:54;;;;;;;58.65;27.92;;;1.20;99.90;;;;;;5113781;28;20489;-65
2023/01/30 03:12:33;;;;;;;58.45;29.60;;;1.20;99.90;;;;;;5113763;28;20111;-65
2023/01/30 03:15:25;;;;;;;61.38;30.90;;;1.20;99.90;;;;;;5113689;28;20038;-65
2023/01/30 03:17:53;;;;;;;64.38;31.58;;;1.20;99.90;;;;;;5075475;28;20046;-65
2023/01/30 03:20:22;;;;;;;67.97;32.05;;;1.30;99.90;;;;;;5113689;28;20035;-65
2023/01/30 03:22:48;;;;;;;60.30;30.77;;;1.30;99.90;;;;;;5114987;28;20019;-65
2023/01/30 03:25:18;;;;;;;61.65;31.83;;;1.20;99.90;;;;;;5113700;28;20024;-65
2023/01/30 03:27:44;;;;;;;67.85;33.40;;;1.10;99.90;;;;;;5114956;28;20109;-65
2023/01/30 03:30:12;;;;;;;61.22;30.65;;;1.10;99.90;;;;;;5114872;28;20122;-65
2023/01/30 03:32:37;;;;;;;62.47;31.23;;;1.10;99.90;;;;;;5114844;28;20085;-65
2023/01/30 03:35:04;;;;;;;62.00;32.50;;;1.10;99.90;;;;;;5114817;28;20054;-65
2023/01/30 03:37:30;;;;;;;60.42;30.98;;;1.10;99.90;;;;;;5114660;28;20040;-65
2023/01/30 03:39:57;;;;;;;64.22;31.90;;;1.00;99.90;;;;;;5113581;28;20028;-65
2023/01/30 03:42:24;;;;;;;60.80;31.98;;;1.00;99.90;;;;;;5113474;28;20473;-65
2023/01/30 03:44:50;;;;;;;61.58;31.85;;;1.00;99.90;;;;;;5113439;28;20198;-65
2023/01/30 03:47:16;;;;;;;68.13;30.45;;;1.20;99.90;;;;;;5114686;28;20024;-65
2023/01/30 03:49:42;;;;;;;68.00;32.00;;;1.20;99.90;;;;;;5113443;28;20057;-65
2023/01/30 03:52:08;;;;;;;66.50;32.60;;;1.30;99.90;;;;;;5113344;28;20016;-65
2023/01/30 03:54:34;;;;;;;63.83;32.15;;;1.20;99.90;;;;;;5113335;28;20027;-65
2023/01/30 03:57:00;;;;;;;64.72;31.25;;;1.20;99.90;;;;;;5113415;28;20614;-65
2023/01/30 03:59:26;;;;;;;62.97;31.70;;;1.30;99.90;;;;;;5113251;28;20374;-65
2023/01/30 04:02:00;;;;;;;58.10;31.20;;;1.30;99.90;;;;;;5113077;28;20056;-65
2023/01/30 04:04:25;;;;;;;65.15;33.60;;;1.20;99.90;;;;;;5113393;28;20026;-65
2023/01/30 04:06:51;;;;;;;64.70;33.60;;;1.10;99.90;;;;;;5113178;28;20038;-65
2023/01/30 04:09:18;;;;;;;61.75;31.92;;;1.10;99.90;;;;;;5114477;28;20050;-65
2023/01/30 04:11:47;;;;;;;64.30;32.35;;;1.10;99.90;;;;;;5113235;28;20032;-65
2023/01/30 04:14:13;;;;;;;63.15;32.47;;;1.00;99.90;;;;;;5113164;28;20024;-65
2023/01/30 04:16:59;;;;;;;66.88;33.95;;;0.90;99.90;;;;;;5114284;28;20101;-65
2023/01/30 04:19:41;;;;;;;67.18;31.60;;;0.90;99.90;;;;;;5116259;28;20032;-65
2023/01/30 04:22:07;;;;;;;61.47;31.65;;;1.00;99.90;;;;;;5116765;28;20089;-65
2023/01/30 04:24:33;;;;;;;70.22;33.28;;;1.00;99.90;;;;;;5116683;28;20028;-65
2023/01/30 04:26:59;;;;;;;65.00;33.72;;;1.00;99.90;;;;;;5116703;28;20477;-65
2023/01/30 04:29:25;;;;;;;64.32;32.83;;;0.90;99.90;;;;;;5116810;28;20035;-65
2023/01/30 04:31:52;;;;;;;58.75;29.48;;;0.80;99.90;;;;;;5116687;28;20035;-65
2023/01/30 04:34:22;;;;;;;60.30;31.10;;;0.90;99.90;;;;;;5116519;28;20027;-65
2023/01/30 04:36:48;;;;;;;62.05;30.05;;;1.00;99.90;;;;;;5116524;28;20028;-65
2023/01/30 04:39:14;;;;;;;68.38;33.47;;;1.00;99.90;;;;;;5117701;28;20115;-65
2023/01/30 04:41:40;;;;;;;62.75;31.58;;;1.00;99.90;;;;;;5116476;28;20031;-65
2023/01/30 04:44:06;;;;;;;60.13;31.65;;;1.00;99.90;;;;;;5116403;28;20020;-65
2023/01/30 04:46:46;;;;;;;63.03;33.15;;;1.00;99.90;;;;;;5116401;28;20036;-65
2023/01/30 04:49:13;;;;;;;67.45;32.50;;;1.00;99.90;;;;;;5116318;28;20031;-65
2023/01/30 04:51:39;;;;;;;61.58;31.40;;;1.00;99.90;;;;;;5116257;28;20046;-65
2023/01/30 04:54:05;;;;;;;59.00;30.45;;;1.00;99.90;;;;;;5116183;28;20028;-65
2023/01/30 04:56:31;;;;;;;66.57;31.55;;;0.90;99.90;;;;;;5116170;28;20077;-65
2023/01/30 04:58:58;;;;;;;62.58;31.40;;;0.90;99.90;;;;;;5116130;28;20481;-65
2023/01/30 05:01:34;;;;;;;64.70;33.72;;;0.90;99.90;;;;;;5115620;28;20035;-65
2023/01/30 05:04:01;;;;;;;64.43;32.45;;;1.00;99.90;;;;;;5116039;28;20123;-65
2023/01/30 05:06:29;;;;;;;63.25;32.42;;;1.00;99.90;;;;;;5117183;28;20487;-65
2023/01/30 05:08:56;;;;;;;62.47;31.98;;;1.00;99.90;;;;;;5117286;28;20477;-65
2023/01/30 05:11:23;;;;;;;71.45;33.00;;;1.00;99.90;;;;;;5117212;28;20415;-65
2023/01/30 05:13:49;;;;;;;73.35;37.15;;;1.00;99.90;;;;;;5117187;28;20035;-65
2023/01/30 05:16:16;;;;;;;66.07;34.42;;;0.90;99.90;;;;;;5117195;28;20516;-65
2023/01/30 05:18:43;;;;;;;71.57;35.92;;;0.90;99.90;;;;;;5116852;28;20032;-65
2023/01/30 05:21:10;;;;;;;77.63;38.38;;;0.80;99.90;;;;;;5116951;28;20027;-65
2023/01/30 05:23:36;;;;;;;72.32;36.20;;;0.80;99.90;;;;;;5116727;28;20049;-65
2023/01/30 05:26:03;;;;;;;74.28;34.28;;;0.70;99.90;;;;;;5116795;28;20431;-65
2023/01/30 05:28:29;;;;;;;69.68;35.40;;;0.80;99.90;;;;;;5116982;28;20031;-65
2023/01/30 05:31:15;;;;;;;74.35;35.78;;;0.80;99.90;;;;;;5116253;28;20027;-65
2023/01/30 05:33:41;;;;;;;76.30;35.47;;;0.80;99.90;;;;;;5116726;28;20442;-65
2023/01/30 05:36:12;;;;;;;76.90;36.05;;;0.70;99.90;;;;;;5116707;28;20024;-65
2023/01/30 05:38:38;;;;;;;70.35;36.42;;;0.60;99.90;;;;;;5116576;28;20110;-65
2023/01/30 05:41:06;;;;;;;73.80;37.05;;;0.80;99.90;;;;;;5116597;28;20445;-65
2023/01/30 05:43:34;;;;;;;64.68;34.88;;;0.80;99.90;;;;;;5116632;28;20028;-65
2023/01/30 05:46:02;;;;;;;76.30;37.67;;;0.80;99.90;;;;;;5116429;28;20043;-65
2023/01/30 05:48:28;;;;;;;74.10;36.65;;;0.90;99.90;;;;;;5116450;28;20046;-65
2023/01/30 05:50:56;;;;;;;76.38;35.78;;;0.80;99.90;;;;;;5116257;28;20046;-65
2023/01/30 05:53:24;;;;;;;76.65;37.20;;;0.80;99.90;;;;;;5116223;28;20078;-65
2023/01/30 05:55:57;;;;;;;79.15;38.78;;;0.90;99.90;;;;;;5116280;28;20110;-65
2023/01/30 05:58:23;;;;;;;78.32;39.10;;;0.90;99.90;;;;;;5116028;28;20493;-65
2023/01/30 06:00:50;;;;;;;66.57;33.15;;;0.90;99.90;;;;;;5116163;28;20027;-64
2023/01/30 06:03:16;;;;;;;66.55;33.85;;;0.90;99.90;;;;;;5116130;28;20110;-65
2023/01/30 06:05:42;;;;;;;67.68;34.85;;;0.90;99.90;;;;;;5116028;28;20034;-65
2023/01/30 06:08:07;;;;;;;74.70;35.72;;;0.80;99.90;;;;;;5116029;28;20027;-65
2023/01/30 06:10:35;;;;;;;73.05;36.53;;;0.80;99.90;;;;;;5115911;28;20488;-65
2023/01/30 06:13:01;;;;;;;73.95;36.92;;;0.80;99.90;;;;;;5115879;28;20115;-65
2023/01/30 06:15:27;;;;;;;72.97;37.25;;;0.80;99.90;;;;;;5115881;28;20504;-65
2023/01/30 06:17:53;;;;;;;81.93;41.95;;;0.70;99.90;;;;;;5115478;28;20027;-65
2023/01/30 06:20:19;;;;;;;82.22;41.75;;;0.90;99.90;;;;;;5115823;28;20031;-65
2023/01/30 06:22:45;;;;;;;86.28;40.72;;;1.00;99.90;;;;;;5115684;28;20457;-65
2023/01/30 06:25:11;;;;;;;86.68;41.75;;;1.00;99.90;;;;;;5113494;28;20043;-65
2023/01/30 06:27:37;;;;;;;96.13;46.42;;;1.10;99.90;;;;;;5115008;28;20636;-65
2023/01/30 06:30:03;;;;;;;95.38;45.35;;;1.20;99.90;;;;;;5115358;28;20028;-65
2023/01/30 06:32:29;;;;;;;118.10;65.68;;;1.20;99.90;;;;;;5113276;28;20188;-65
2023/01/30 06:34:55;;;;;;;126.50;68.15;;;1.20;99.90;;;;;;5115419;28;20509;-65
2023/01/30 06:37:21;;;;;;;95.75;46.58;;;1.20;99.90;;;;;;5115308;28;20066;-65
2023/01/30 06:39:47;;;;;;;83.25;42.10;;;1.20;99.90;;;;;;5115395;28;20022;-65
2023/01/30 06:42:13;;;;;;;87.35;42.28;;;1.10;99.90;;;;;;5114394;28;20020;-65
2023/01/30 06:44:41;;;;;;;93.55;46.20;;;1.10;99.90;;;;;;5112605;28;20504;-65
2023/01/30 06:47:07;;;;;;;88.00;43.63;;;1.10;99.90;;;;;;5111268;28;20055;-65
2023/01/30 06:49:33;;;;;;;90.43;46.05;;;1.20;99.90;;;;;;5103478;27;20101;-65
2023/01/30 06:51:59;;;;;;;102.03;46.70;;;1.20;99.90;;;;;;5098090;28;20039;-65
2023/01/30 06:54:25;;;;;;;105.78;50.42;;;1.30;99.90;;;;;;5108947;28;20031;-65
2023/01/30 06:56:52;;;;;;;113.38;51.45;;;1.30;99.90;;;;;;5114850;28;20046;-65
2023/01/30 06:59:18;;;;;;;111.40;50.95;;;1.40;99.90;;;;;;5114997;28;20039;-65
2023/01/30 07:01:44;;;;;;;120.72;55.05;;;1.50;99.90;;;;;;5114771;28;20118;-65
2023/01/30 07:04:10;;;;;;;124.88;55.85;;;1.40;99.90;;;;;;5114893;28;20120;-65
2023/01/30 07:06:36;;;;;;;111.47;50.58;;;1.50;99.90;;;;;;5114995;28;20076;-65
2023/01/30 07:09:02;;;;;;;108.25;49.17;;;1.50;99.90;;;;;;5114818;28;20070;-65
2023/01/30 07:11:28;;;;;;;110.95;47.33;;;1.50;99.90;;;;;;5113990;28;20024;-65
2023/01/30 07:13:54;;;;;;;106.13;47.65;;;1.60;99.90;;;;;;5114664;28;20094;-65
2023/01/30 07:16:22;;;;;;;113.82;54.28;;;1.50;99.90;;;;;;5112666;28;20028;-65
2023/01/30 07:18:48;;;;;;;99.10;47.53;;;1.60;99.90;;;;;;5113736;28;20417;-65
2023/01/30 07:21:14;;;;;;;103.47;46.67;;;1.50;99.90;;;;;;5114500;28;20024;-65
2023/01/30 07:23:40;;;;;;;98.57;49.00;;;1.50;99.90;;;;;;5114263;28;20024;-67
2023/01/30 07:26:06;;;;;;;101.82;47.20;;;1.60;99.90;;;;;;5111730;28;20035;-66
2023/01/30 07:28:35;;;;;;;108.65;50.05;;;1.60;99.90;;;;;;5114514;28;20469;-66
2023/01/30 07:31:01;;;;;;;109.80;48.47;;;1.70;99.90;;;;;;5105605;28;20035;-66
2023/01/30 07:33:27;;;;;;;118.75;51.15;;;1.80;99.90;;;;;;5095238;28;20038;-67
2023/01/30 07:35:54;;;;;;;110.00;52.05;;;1.80;99.90;;;;;;5101452;28;20543;-67
2023/01/30 07:38:20;;;;;;;114.47;53.92;;;1.90;99.90;;;;;;5102534;28;20046;-64
2023/01/30 07:40:46;;;;;;;121.85;55.47;;;2.00;99.90;;;;;;5102472;28;20028;-67
2023/01/30 07:43:12;;;;;;;133.13;61.65;;;2.00;99.90;;;;;;5114391;28;20106;-67
2023/01/30 07:45:47;;;;;;;117.47;58.88;;;2.00;99.90;;;;;;5099847;28;20023;-67
2023/01/30 07:48:16;;;;;;;125.25;61.83;;;2.10;99.90;;;;;;5094058;28;20439;-67
2023/01/30 07:50:42;;;;;;;125.03;60.38;;;2.20;99.90;;;;;;5094122;28;20047;-67
2023/01/30 07:53:11;;;;;;;130.27;62.45;;;2.20;99.90;;;;;;5093623;28;20028;-65
2023/01/30 07:55:37;;;;;;;150.57;73.70;;;2.30;99.90;;;;;;5108713;28;20030;-65
2023/01/30 07:58:03;;;;;;;155.73;70.30;;;2.30;99.90;;;;;;5118344;28;20032;-68
2023/01/30 08:00:30;;;;;;;152.63;68.97;;;2.30;99.90;;;;;;5118576;28;20023;-67
2023/01/30 08:02:56;;;;;;;156.38;72.55;;;2.30;99.90;;;;;;5118010;28;20359;-66
2023/01/30 08:05:22;;;;;;;160.55;74.05;;;2.30;99.90;;;;;;5117853;28;20122;-65
2023/01/30 08:07:48;;;;;;;163.50;75.07;;;2.40;99.90;;;;;;5117713;28;20089;-65
2023/01/30 08:10:14;;;;;;;164.05;76.60;;;2.50;99.90;;;;;;5115805;28;20024;-65
2023/01/30 08:12:41;;;;;;;158.38;74.05;;;2.50;99.90;;;;;;5116142;28;20023;-65
2023/01/30 08:15:08;;;;;;;143.07;66.35;;;2.40;99.90;;;;;;5118071;28;20038;-65
2023/01/30 08:17:34;;;;;;;141.63;66.07;;;2.20;99.90;;;;;;5103698;28;20024;-65
2023/01/30 08:20:10;;;;;;;135.50;63.08;;;2.50;99.90;;;;;;5103492;28;20028;-65
2023/01/30 08:22:36;;;;;;;132.77;61.90;;;2.60;99.90;;;;;;5116315;27;20027;-65
2023/01/30 08:25:02;;;;;;;135.10;63.90;;;2.80;99.90;;;;;;5119774;27;20034;-65
2023/01/30 08:27:27;;;;;;;128.07;60.97;;;3.00;99.90;;;;;;5107849;28;20024;-65
2023/01/30 08:29:53;;;;;;;130.32;62.88;;;3.00;99.90;;;;;;5103965;28;20401;-65
2023/01/30 08:32:19;;;;;;;133.65;63.83;;;3.20;99.90;;;;;;5117639;27;20030;-65
2023/01/30 08:34:45;;;;;;;127.65;60.53;;;3.20;99.90;;;;;;5118013;28;20529;-65
2023/01/30 08:37:11;;;;;;;122.85;58.00;;;3.30;99.90;;;;;;5117253;27;20031;-65
2023/01/30 08:39:37;;;;;;;135.70;60.10;;;3.30;99.90;;;;;;5118212;28;20039;-65
2023/01/30 08:42:03;;;;;;;138.32;59.70;;;3.60;99.90;;;;;;5117565;28;20016;-65
2023/01/30 08:44:32;;;;;;;142.05;60.47;;;3.40;99.90;;;;;;5114299;28;20024;-65
2023/01/30 08:46:58;;;;;;;138.85;61.85;;;3.50;99.90;;;;;;5118052;27;20046;-65
2023/01/30 08:49:24;;;;;;;138.75;59.45;;;3.60;99.90;;;;;;5117607;28;20019;-65
2023/01/30 08:51:50;;;;;;;114.60;53.45;;;3.80;99.90;;;;;;5113841;28;20035;-65
2023/01/30 08:54:16;;;;;;;131.52;55.53;;;3.80;99.90;;;;;;5113268;28;20031;-65
2023/01/30 08:56:42;;;;;;;131.95;55.55;;;4.20;99.90;;;;;;5121626;27;20024;-65
2023/01/30 08:59:08;;;;;;;131.38;56.35;;;4.50;99.90;;;;;;5112891;28;20027;-65
2023/01/30 09:01:34;;;;;;;132.48;52.70;;;5.00;99.90;;;;;;5116600;27;20044;-65
2023/01/30 09:04:00;;;;;;;141.32;53.63;;;5.30;96.90;;;;;;5116970;28;20039;-65
2023/01/30 09:06:26;;;;;;;104.10;41.85;;;4.90;93.90;;;;;;5115495;28;20027;-65
2023/01/30 09:08:52;;;;;;;88.35;42.00;;;5.10;93.20;;;;;;5113446;28;20024;-65
2023/01/30 09:11:18;;;;;;;79.25;34.17;;;5.30;92.90;;;;;;5114652;28;20062;-65
2023/01/30 09:13:44;;;;;;;55.15;25.27;;;5.50;91.00;;;;;;5113970;28;20038;-65
2023/01/30 09:16:13;;;;;;;55.13;26.42;;;5.70;83.90;;;;;;5115138;28;20035;-65
2023/01/30 09:18:40;;;;;;;75.43;26.27;;;6.30;85.70;;;;;;5114072;28;20469;-65
2023/01/30 09:21:07;;;;;;;47.65;21.48;;;7.00;81.70;;;;;;5115940;28;20023;-65
2023/01/30 09:23:34;;;;;;;57.75;25.02;;;7.60;76.60;;;;;;5115620;28;20030;-65
2023/01/30 09:26:03;;;;;;;78.25;28.60;;;8.30;74.30;;;;;;5116765;28;20115;-65
2023/01/30 09:28:30;;;;;;;63.95;28.23;;;9.00;71.10;;;;;;5111184;28;20051;-65
2023/01/30 09:30:57;;;;;;;58.80;28.25;;;9.60;64.90;;;;;;5114384;28;20027;-65
2023/01/30 09:33:23;;;;;;;74.53;32.88;;;9.00;66.10;;;;;;5111197;28;20023;-65
2023/01/30 09:35:50;;;;;;;65.47;29.75;;;8.90;63.40;;;;;;5109687;28;20032;-66
2023/01/30 09:38:17;;;;;;;72.53;30.02;;;8.90;65.20;;;;;;5113457;28;20030;-66
2023/01/30 09:41:31;;;;;;;75.95;32.88;;;9.70;64.30;;;;;;5109246;27;20024;-66
2023/01/30 09:44:16;;;;;;;72.72;31.50;;;9.80;59.20;;;;;;5113973;28;20078;-66
2023/01/30 09:47:01;;;;;;;80.57;33.30;;;10.00;59.60;;;;;;5112560;28;20026;-66
2023/01/30 09:49:39;;;;;;;65.45;29.27;;;10.00;60.80;;;;;;5100700;28;20051;-66
2023/01/30 09:52:41;;;;;;;59.92;29.77;;;9.30;60.90;;;;;;5107039;28;20027;-66
2023/01/30 09:55:20;;;;;;;58.75;26.63;;;10.00;59.00;;;;;;5111040;27;20031;-66
2023/01/30 09:57:50;;;;;;;61.25;27.25;;;10.90;57.10;;;;;;5113090;28;20019;-66
2023/01/30 10:00:29;;;;;;;59.95;29.27;;;11.60;55.70;;;;;;5111926;28;20084;-66
2023/01/30 10:03:18;;;;;;;57.72;29.65;;;11.30;55.20;;;;;;5112201;28;20119;-66
2023/01/30 10:06:10;;;;;;;68.35;30.67;;;11.60;55.00;;;;;;5114951;28;20015;-66
2023/01/30 10:08:55;;;;;;;68.57;30.50;;;11.10;54.00;;;;;;5114841;28;20036;-66
2023/01/30 10:11:55;;;;;;;64.03;30.85;;;10.40;60.10;;;;;;5115367;28;20023;-66
2023/01/30 10:14:30;;;;;;;74.15;33.47;;;11.30;56.90;;;;;;5106619;28;20035;-67
2023/01/30 10:17:11;;;;;;;68.75;32.65;;;11.70;55.30;;;;;;5101161;28;20024;-66
2023/01/30 10:19:52;;;;;;;;;;;12.00;52.90;;;;;;5112949;28;20111;-67
2023/01/30 10:22:33;;;;;;;;;;;12.00;53.30;;;;;;5114610;28;19907;-70
2023/01/30 10:25:02;;;;;;;;;;;11.70;52.60;;;;;;5111911;28;19907;-71
2023/01/30 10:27:32;;;;;;;64.90;30.75;;;11.70;55.20;;;;;;5114769;28;19945;-70
2023/01/30 10:30:02;;;;;;;60.75;30.92;;;12.00;55.60;;;;;;5114639;28;20028;-70
2023/01/30 10:32:32;;;;;;;80.03;37.13;;;12.20;52.70;;;;;;5114816;28;20020;-68
2023/01/30 10:35:22;;;;;;;67.60;35.95;;;13.20;52.30;;;;;;5115370;28;20020;-68
2023/01/30 10:38:31;;;;;;;105.00;36.92;;;12.50;48.90;;;;;;5115232;28;20307;-67
2023/01/30 10:41:16;;;;;;;67.35;33.65;;;12.60;52.20;;;;;;5052018;28;20025;-67
2023/01/30 10:43:47;;;;;;;60.38;32.70;;;13.30;50.40;;;;;;5049792;28;20100;-68
2023/01/30 10:46:46;;;;;;;83.63;34.22;;;12.60;49.70;;;;;;5051237;28;20044;-69
2023/01/30 10:49:36;;;;;;;74.30;33.60;;;12.70;49.60;;;;;;5051369;28;20485;-70
2023/01/30 10:52:18;;;;;;;66.82;31.95;;;13.10;50.50;;;;;;5049398;28;20645;-70
2023/01/30 10:55:00;;;;;;;78.18;34.50;;;12.00;49.90;;;;;;5049211;28;20033;-71
2023/01/30 10:57:44;;;;;;;87.55;34.97;;;12.00;51.40;;;;;;5051682;28;20561;-71
2023/01/30 11:00:27;;;;;;;72.80;34.90;;;11.30;52.40;;;;;;5051484;28;20025;-70
2023/01/30 11:03:15;;;;;;;74.80;34.53;;;12.10;51.90;;;;;;5049219;28;20041;-70
2023/01/30 11:05:46;;;;;;;84.28;35.83;;;12.70;49.70;;;;;;5048948;28;20040;-71
2023/01/30 11:08:34;;;;;;;75.20;34.72;;;13.00;50.80;;;;;;5050075;28;20079;-71
2023/01/30 11:11:20;;;;;;;97.32;45.25;;;12.70;49.00;;;;;;5058200;28;20223;-71
2023/01/30 11:13:46;;;;;;;75.55;34.20;;;13.50;50.40;;;;;;5108110;28;20027;-71
2023/01/30 11:16:12;;;;;;;87.07;35.50;;;14.30;47.90;;;;;;5114164;28;20024;-71
2023/01/30 11:18:49;;;;;;;74.53;36.10;;;13.80;46.60;;;;;;5114345;28;20288;-71
2023/01/30 11:21:25;;;;;;;78.93;33.42;;;13.50;46.40;;;;;;5114608;28;20119;-71
2023/01/30 11:23:53;;;;;;;79.72;35.83;;;13.00;48.70;;;;;;5114485;28;20031;-71
2023/01/30 11:26:31;;;;;;;89.30;36.75;;;13.00;48.40;;;;;;5114563;28;20076;-70
2023/01/30 11:28:57;;;;;;;88.80;37.40;;;13.80;47.50;;;;;;5116986;28;20038;-70
2023/01/30 11:31:29;;;;;;;87.32;37.95;;;13.80;47.10;;;;;;5118770;28;20027;-72
2023/01/30 11:34:04;;;;;;;98.95;39.90;;;12.70;47.10;;;;;;5114729;28;20028;-72
2023/01/30 11:36:32;;;;;;;77.32;37.13;;;12.20;50.60;;;;;;5118225;28;20376;-72
2023/01/30 11:39:23;;;;;;;87.78;37.17;;;11.80;51.60;;;;;;5117928;28;20422;-72
2023/01/30 11:41:52;;;;;;;80.35;37.05;;;12.20;52.00;;;;;;5115987;28;20028;-72
2023/01/30 11:44:26;;;;;;;85.38;36.88;;;12.00;51.60;;;;;;5118166;28;20055;-72
2023/01/30 11:46:52;;;;;;;87.38;39.35;;;12.40;50.60;;;;;;5118037;28;20027;-73
2023/01/30 11:49:21;;;;;;;79.05;36.38;;;12.00;50.60;;;;;;5117670;28;20031;-73
2023/01/30 11:51:51;;;;;;;76.90;36.03;;;11.80;52.20;;;;;;5115329;28;20083;-73
2023/01/30 11:54:25;;;;;;;69.72;34.75;;;12.30;51.00;;;;;;5115693;28;20027;-73
2023/01/30 11:56:53;;;;;;;68.43;35.00;;;12.30;50.00;;;;;;5117911;28;20565;-73
2023/01/30 11:59:38;;;;;;;92.53;38.90;;;12.00;50.30;;;;;;5118398;28;20096;-72
2023/01/30 12:02:22;;;;;;;83.50;38.60;;;12.20;51.40;;;;;;5118155;28;20125;-72
2023/01/30 12:04:54;;;;;;;94.90;44.80;;;11.60;53.00;;;;;;5116634;28;20028;-72
2023/01/30 12:07:26;;;;;;;69.43;35.88;;;11.80;51.30;;;;;;5117859;28;20028;-72
2023/01/30 12:09:53;;;;;;;69.22;35.65;;;12.30;50.10;;;;;;5118267;28;20239;-72
2023/01/30 12:12:22;;;;;;;75.45;34.88;;;12.60;49.80;;;;;;5115385;28;20473;-72
2023/01/30 12:14:51;;;;;;;75.90;34.75;;;12.70;49.20;;;;;;5117647;28;20107;-72
2023/01/30 12:17:32;;;;;;;68.35;35.22;;;12.00;49.90;;;;;;5117476;28;20028;-72
2023/01/30 12:20:11;;;;;;;69.35;35.63;;;11.50;50.50;;;;;;5117044;28;20437;-71
2023/01/30 12:23:04;;;;;;;65.40;35.45;;;12.00;51.10;;;;;;5101539;28;20020;-72
2023/01/30 12:26:11;;;;;;;63.47;36.15;;;11.80;50.90;;;;;;5115244;28;20035;-72
2023/01/30 12:28:52;;;;;;;68.57;37.75;;;11.80;52.20;;;;;;5078905;28;20473;-72
2023/01/30 12:31:46;;;;;;;80.25;43.00;;;11.80;52.90;;;;;;5114682;28;20032;-72
2023/01/30 12:34:12;;;;;;;81.25;38.97;;;12.30;51.90;;;;;;5104122;28;20127;-72
2023/01/30 12:37:10;;;;;;;67.28;37.05;;;13.50;50.70;;;;;;5117060;28;20137;-72
2023/01/30 12:39:55;;;;;;;63.92;37.40;;;13.40;48.80;;;;;;5113935;28;20030;-71
2023/01/30 12:42:48;;;;;;;71.97;36.72;;;12.50;50.40;;;;;;5105511;28;20521;-71
2023/01/30 12:45:22;;;;;;;64.82;36.00;;;11.90;51.50;;;;;;5097468;28;20020;-70
2023/01/30 12:47:54;;;;;;;65.32;35.80;;;12.70;52.50;;;;;;5110254;28;20492;-71
2023/01/30 12:50:35;;;;;;;68.75;37.08;;;11.20;51.70;;;;;;5116563;28;20593;-71
2023/01/30 12:53:27;;;;;;;86.40;39.22;;;10.60;54.90;;;;;;5116474;28;20027;-70
2023/01/30 12:56:31;;;;;;;76.07;36.20;;;10.40;54.60;;;;;;5116905;28;20080;-74
2023/01/30 12:59:14;;;;;;;90.45;37.65;;;9.80;57.10;;;;;;5111669;28;20039;-72
2023/01/30 13:01:56;;;;;;;81.78;38.03;;;10.40;56.60;;;;;;5105546;28;20052;-73
2023/01/30 13:04:53;;;;;;;99.20;38.90;;;9.80;56.90;;;;;;5097021;28;20465;-71